createdAt,value
2023-08-31T00:00:54.651Z,7.00
2023-08-31T00:03:21.854Z,6.27
2023-08-31T00:05:52.285Z,12.10
2023-08-31T00:08:19.493Z,6.70
2023-08-31T00:10:46.660Z,7.20
2023-08-31T00:13:13.980Z,7.10
2023-08-31T00:15:42.358Z,6.10
2023-08-31T00:18:11.148Z,6.10
2023-08-31T00:20:38.305Z,6.45
2023-08-31T00:23:05.442Z,6.47
2023-08-31T00:25:32.596Z,6.28
2023-08-31T00:28:05.695Z,6.43
2023-08-31T00:30:33.070Z,6.77
2023-08-31T00:33:01.206Z,5.70
2023-08-31T00:35:29.558Z,6.40
2023-08-31T00:37:59.561Z,6.93
2023-08-31T00:40:27.032Z,6.30
2023-08-31T00:42:54.210Z,7.37
2023-08-31T00:45:23.159Z,6.37
2023-08-31T00:47:51.005Z,6.37
2023-08-31T00:50:18.460Z,7.27
2023-08-31T00:52:45.659Z,7.33
2023-08-31T00:55:12.951Z,6.33
2023-08-31T00:57:41.949Z,6.60
2023-08-31T01:00:09.977Z,5.90
2023-08-31T01:02:51.509Z,5.93
2023-08-31T01:05:33.410Z,6.43
2023-08-31T01:08:27.706Z,5.83
2023-08-31T01:11:17.855Z,5.40
2023-08-31T01:13:55.832Z,5.87
2023-08-31T01:16:26.329Z,7.70
2023-08-31T01:18:54.875Z,6.17
2023-08-31T01:21:28.690Z,5.72
2023-08-31T01:23:57.511Z,6.50
2023-08-31T01:26:25.968Z,7.10
2023-08-31T01:28:55.625Z,7.23
2023-08-31T01:31:22.881Z,7.00
2023-08-31T01:33:50.293Z,6.67
2023-08-31T01:36:30.200Z,18.13
2023-08-31T01:39:41.491Z,6.87
2023-08-31T01:42:11.193Z,6.60
2023-08-31T01:44:38.967Z,6.77
2023-08-31T01:47:07.855Z,5.70
2023-08-31T01:49:41.688Z,5.83
2023-08-31T01:52:08.819Z,6.37
2023-08-31T01:54:38.372Z,5.73
2023-08-31T01:57:06.915Z,5.50
2023-08-31T01:59:36.066Z,5.67
2023-08-31T02:02:03.395Z,8.52
2023-08-31T02:04:30.859Z,6.27
2023-08-31T02:06:58.257Z,5.27
2023-08-31T02:09:25.430Z,6.30
2023-08-31T02:11:52.567Z,6.43
2023-08-31T02:14:19.782Z,6.20
2023-08-31T02:16:46.910Z,8.00
2023-08-31T02:19:14.059Z,7.80
2023-08-31T02:21:41.239Z,7.50
2023-08-31T02:24:08.449Z,6.87
2023-08-31T02:26:38.146Z,6.90
2023-08-31T02:29:05.349Z,6.72
2023-08-31T02:31:34.112Z,6.23
2023-08-31T02:34:01.268Z,5.77
2023-08-31T02:36:28.481Z,5.67
2023-08-31T02:38:55.668Z,6.00
2023-08-31T02:41:22.932Z,5.80
2023-08-31T02:43:53.620Z,5.37
2023-08-31T02:46:20.980Z,6.30
2023-08-31T02:48:48.740Z,5.18
2023-08-31T02:51:16.035Z,7.13
2023-08-31T02:53:43.486Z,5.07
2023-08-31T02:56:10.626Z,5.70
2023-08-31T02:58:40.553Z,5.30
2023-08-31T03:01:12.519Z,6.47
2023-08-31T03:03:43.464Z,6.13
2023-08-31T03:06:11.504Z,5.93
2023-08-31T03:08:39.307Z,5.63
2023-08-31T03:11:07.043Z,5.37
2023-08-31T03:13:34.606Z,5.57
2023-08-31T03:16:02.009Z,6.10
2023-08-31T03:18:29.972Z,5.67
2023-08-31T03:20:57.352Z,5.80
2023-08-31T03:23:26.196Z,5.93
2023-08-31T03:25:53.474Z,5.00
2023-08-31T03:28:21.929Z,5.13
2023-08-31T03:30:56.803Z,5.30
2023-08-31T03:33:24.269Z,5.13
2023-08-31T03:35:51.503Z,5.50
2023-08-31T03:38:18.971Z,5.77
2023-08-31T03:40:56.399Z,5.53
2023-08-31T03:43:23.717Z,5.70
2023-08-31T03:45:57.588Z,4.97
2023-08-31T03:48:25.735Z,6.20
2023-08-31T03:50:54.149Z,4.97
2023-08-31T03:53:23.624Z,5.30
2023-08-31T03:55:53.864Z,5.00
2023-08-31T03:58:21.456Z,5.33
2023-08-31T04:00:51.838Z,5.17
2023-08-31T04:03:20.243Z,5.27
2023-08-31T04:05:48.580Z,5.70
2023-08-31T04:08:15.813Z,5.27
2023-08-31T04:10:43.132Z,5.07
2023-08-31T04:13:10.949Z,4.83
2023-08-31T04:15:38.500Z,5.00
2023-08-31T04:18:06.150Z,5.53
2023-08-31T04:20:34.434Z,5.93
2023-08-31T04:23:01.568Z,7.17
2023-08-31T04:25:32.340Z,6.07
2023-08-31T04:27:59.591Z,5.63
2023-08-31T04:30:27.572Z,5.17
2023-08-31T04:32:55.025Z,4.67
2023-08-31T04:35:22.372Z,5.00
2023-08-31T04:37:49.519Z,5.50
2023-08-31T04:40:16.891Z,5.40
2023-08-31T04:42:44.840Z,4.60
2023-08-31T04:45:13.168Z,3.90
2023-08-31T04:47:40.476Z,4.80
2023-08-31T04:50:08.477Z,4.20
2023-08-31T04:52:35.921Z,4.63
2023-08-31T04:55:08.657Z,4.77
2023-08-31T04:57:36.021Z,4.60
2023-08-31T05:00:04.434Z,5.17
2023-08-31T05:02:31.615Z,4.20
2023-08-31T05:04:58.755Z,4.63
2023-08-31T05:07:25.902Z,4.90
2023-08-31T05:09:53.110Z,5.13
2023-08-31T05:12:20.305Z,6.17
2023-08-31T05:14:47.434Z,5.17
2023-08-31T05:17:14.582Z,5.00
2023-08-31T05:19:41.814Z,5.23
2023-08-31T05:22:08.962Z,5.27
2023-08-31T05:24:36.090Z,4.90
2023-08-31T05:27:03.710Z,5.32
2023-08-31T05:29:31.045Z,4.43
2023-08-31T05:31:58.196Z,5.00
2023-08-31T05:34:26.589Z,4.70
2023-08-31T05:36:53.740Z,5.43
2023-08-31T05:39:20.946Z,6.97
2023-08-31T05:41:48.095Z,10.07
2023-08-31T05:44:15.325Z,9.95
2023-08-31T05:46:42.615Z,6.93
2023-08-31T05:49:09.872Z,7.15
2023-08-31T05:51:37.060Z,5.30
2023-08-31T05:54:04.575Z,5.68
2023-08-31T05:56:31.984Z,6.72
2023-08-31T05:58:59.256Z,7.07
2023-08-31T06:01:26.496Z,6.13
2023-08-31T06:03:53.808Z,5.30
2023-08-31T06:06:21.083Z,5.10
2023-08-31T06:08:49.122Z,4.78
2023-08-31T06:11:16.346Z,4.47
2023-08-31T06:13:43.928Z,3.40
2023-08-31T06:16:11.610Z,4.07
2023-08-31T06:18:38.947Z,3.55
2023-08-31T06:21:06.082Z,4.10
2023-08-31T06:23:33.246Z,4.47
2023-08-31T06:26:00.397Z,4.30
2023-08-31T06:28:27.534Z,3.80
2023-08-31T06:30:54.676Z,4.68
2023-08-31T06:33:22.701Z,5.07
2023-08-31T06:35:52.481Z,3.20
2023-08-31T06:38:20.384Z,3.75
2023-08-31T06:40:48.259Z,4.00
2023-08-31T06:43:15.885Z,5.50
2023-08-31T06:45:43.334Z,5.15
2023-08-31T06:48:10.771Z,4.57
2023-08-31T06:50:38.008Z,4.50
2023-08-31T06:53:05.283Z,5.22
2023-08-31T06:55:33.224Z,7.90
2023-08-31T06:58:02.049Z,4.70
2023-08-31T07:00:29.254Z,4.57
2023-08-31T07:02:56.607Z,4.00
2023-08-31T07:05:26.774Z,3.88
2023-08-31T07:07:55.215Z,4.55
2023-08-31T07:10:23.045Z,4.97
2023-08-31T07:12:50.246Z,4.60
2023-08-31T07:15:17.609Z,4.55
2023-08-31T07:17:44.849Z,4.30
2023-08-31T07:20:13.203Z,4.38
2023-08-31T07:22:41.511Z,4.32
2023-08-31T07:25:08.963Z,4.40
2023-08-31T07:27:36.391Z,4.50
2023-08-31T07:30:05.061Z,4.82
2023-08-31T07:32:32.737Z,4.88
2023-08-31T07:35:00.176Z,5.63
2023-08-31T07:37:27.470Z,5.53
2023-08-31T07:39:54.670Z,4.30
2023-08-31T07:42:21.833Z,3.40
2023-08-31T07:44:49.090Z,4.00
2023-08-31T07:47:16.221Z,3.50
2023-08-31T07:49:43.441Z,4.40
2023-08-31T07:52:10.609Z,4.28
2023-08-31T07:54:37.773Z,5.30
2023-08-31T07:57:05.135Z,3.80
2023-08-31T07:59:32.341Z,3.47
2023-08-31T08:01:59.611Z,3.78
2023-08-31T08:04:27.975Z,3.35
2023-08-31T08:06:55.251Z,3.30
2023-08-31T08:09:22.570Z,3.35
2023-08-31T08:11:49.773Z,3.90
2023-08-31T08:14:16.943Z,3.85
2023-08-31T08:16:44.417Z,4.18
2023-08-31T08:19:11.663Z,4.65
2023-08-31T08:21:38.815Z,4.57
2023-08-31T08:24:06.139Z,5.43
2023-08-31T08:26:33.277Z,7.15
2023-08-31T08:29:00.462Z,3.80
2023-08-31T08:31:27.692Z,4.57
2023-08-31T08:33:54.866Z,4.68
2023-08-31T08:36:22.049Z,4.07
2023-08-31T08:38:49.229Z,3.70
2023-08-31T08:41:20.130Z,4.43
2023-08-31T08:43:48.788Z,4.32
2023-08-31T08:46:15.962Z,4.07
2023-08-31T08:48:45.212Z,4.15
2023-08-31T08:51:12.872Z,4.43
2023-08-31T08:53:44.479Z,4.13
2023-08-31T08:56:11.734Z,4.00
2023-08-31T08:58:38.883Z,3.70
2023-08-31T09:01:08.208Z,3.92
2023-08-31T09:03:36.191Z,4.13
2023-08-31T09:06:05.307Z,3.45
2023-08-31T09:08:32.651Z,3.25
2023-08-31T09:11:00.522Z,3.60
2023-08-31T09:13:31.121Z,5.10
2023-08-31T09:15:59.011Z,5.85
2023-08-31T09:18:29.093Z,4.93
2023-08-31T09:21:00.053Z,6.10
2023-08-31T09:23:27.816Z,4.93
2023-08-31T09:25:56.630Z,4.35
2023-08-31T09:28:27.761Z,4.57
2023-08-31T09:31:08.110Z,4.47
2023-08-31T09:33:37.420Z,4.43
2023-08-31T09:36:06.996Z,3.20
2023-08-31T09:38:43.173Z,3.55
2023-08-31T09:41:10.387Z,6.88
2023-08-31T09:43:37.644Z,7.13
2023-08-31T09:46:05.838Z,3.70
2023-08-31T09:48:33.258Z,4.07
2023-08-31T09:51:05.328Z,3.83
2023-08-31T09:53:32.972Z,4.53
2023-08-31T09:56:00.857Z,3.53
2023-08-31T09:58:30.074Z,4.78
2023-08-31T10:00:59.120Z,4.28
2023-08-31T10:03:28.444Z,3.85
2023-08-31T10:05:56.272Z,3.80
2023-08-31T10:08:25.077Z,4.28
2023-08-31T10:10:52.310Z,4.07
2023-08-31T10:13:22.282Z,4.72
2023-08-31T10:15:50.415Z,3.85
2023-08-31T10:18:18.333Z,4.40
2023-08-31T10:20:46.641Z,4.03
2023-08-31T10:23:14.650Z,4.55
2023-08-31T10:26:04.569Z,3.90
2023-08-31T10:28:40.669Z,3.60
2023-08-31T10:31:18.824Z,3.75
2023-08-31T10:33:47.589Z,3.55
2023-08-31T10:36:19.240Z,3.97
2023-08-31T10:39:09.100Z,3.78
2023-08-31T10:41:39.478Z,4.32
2023-08-31T10:44:20.980Z,3.95
2023-08-31T10:46:49.486Z,3.80
2023-08-31T10:49:18.947Z,6.00
2023-08-31T10:52:07.275Z,4.35
2023-08-31T10:54:38.529Z,3.60
2023-08-31T10:57:07.723Z,3.83
2023-08-31T10:59:54.430Z,3.30
2023-08-31T11:02:44.386Z,3.72
2023-08-31T11:05:14.726Z,4.18
2023-08-31T11:07:48.858Z,4.97
2023-08-31T11:10:20.913Z,3.20
2023-08-31T11:12:50.047Z,3.47
2023-08-31T11:15:21.921Z,3.90
2023-08-31T11:17:51.573Z,3.92
2023-08-31T11:20:20.843Z,3.17
2023-08-31T11:22:50.869Z,3.65
2023-08-31T11:25:19.089Z,5.97
2023-08-31T11:27:57.271Z,4.95
2023-08-31T11:30:30.045Z,4.18
2023-08-31T11:32:57.228Z,3.60
2023-08-31T11:35:27.646Z,4.25
2023-08-31T11:37:58.249Z,4.18
2023-08-31T11:40:28.223Z,4.90
2023-08-31T11:42:55.534Z,3.40
2023-08-31T11:45:24.940Z,3.60
2023-08-31T11:47:53.418Z,3.25
2023-08-31T11:50:21.608Z,3.50
2023-08-31T11:52:49.488Z,3.38
2023-08-31T11:55:20.286Z,3.65
2023-08-31T11:57:57.269Z,3.78
2023-08-31T12:00:25.726Z,4.75
2023-08-31T12:03:02.560Z,3.88
2023-08-31T12:05:31.145Z,4.25
2023-08-31T12:07:58.565Z,4.25
2023-08-31T12:10:27.335Z,3.50
2023-08-31T12:12:56.668Z,3.60
2023-08-31T12:15:24.283Z,3.63
2023-08-31T12:17:55.877Z,3.80
2023-08-31T12:20:30.306Z,3.15
2023-08-31T12:22:57.462Z,3.40
2023-08-31T12:25:24.832Z,3.63
2023-08-31T12:27:52.040Z,3.05
2023-08-31T12:30:19.243Z,4.35
2023-08-31T12:32:47.111Z,3.08
2023-08-31T12:35:15.406Z,3.75
2023-08-31T12:37:42.597Z,3.80
2023-08-31T12:40:11.026Z,3.30
2023-08-31T12:42:38.200Z,3.38
2023-08-31T12:45:06.810Z,3.50
2023-08-31T12:47:35.531Z,3.33
2023-08-31T12:50:04.159Z,3.60
2023-08-31T12:52:31.287Z,3.58
2023-08-31T12:54:58.480Z,3.55
2023-08-31T12:57:25.640Z,3.10
2023-08-31T12:59:52.858Z,3.50
2023-08-31T13:02:21.109Z,3.35
2023-08-31T13:04:48.505Z,3.80
2023-08-31T13:07:15.724Z,2.90
2023-08-31T13:09:42.905Z,4.03
2023-08-31T13:12:10.016Z,3.55
2023-08-31T13:14:37.212Z,3.47
2023-08-31T13:17:04.938Z,3.30
2023-08-31T13:19:32.233Z,3.22
2023-08-31T13:21:59.363Z,3.42
2023-08-31T13:24:26.622Z,5.20
2023-08-31T13:26:53.774Z,4.97
2023-08-31T13:29:21.413Z,3.38
2023-08-31T13:31:48.563Z,3.40
2023-08-31T13:34:16.565Z,3.42
2023-08-31T13:36:43.708Z,3.60
2023-08-31T13:39:10.912Z,4.00
2023-08-31T13:41:38.426Z,3.20
2023-08-31T13:44:05.651Z,3.83
2023-08-31T13:46:32.976Z,3.72
2023-08-31T13:49:02.766Z,4.13
2023-08-31T13:51:30.055Z,3.92
2023-08-31T13:53:57.368Z,6.97
2023-08-31T13:56:24.602Z,2.85
2023-08-31T13:58:51.814Z,3.50
2023-08-31T14:01:19.093Z,3.50
2023-08-31T14:03:46.508Z,4.15
2023-08-31T14:06:15.762Z,3.85
2023-08-31T14:08:43.105Z,4.15
2023-08-31T14:11:10.286Z,5.38
2023-08-31T14:13:37.462Z,5.15
2023-08-31T14:16:04.831Z,3.90
2023-08-31T14:18:32.979Z,4.20
2023-08-31T14:21:01.892Z,3.72
2023-08-31T14:23:29.051Z,3.67
2023-08-31T14:26:02.280Z,3.85
2023-08-31T14:28:29.663Z,4.65
2023-08-31T14:30:56.805Z,4.50
2023-08-31T14:33:23.964Z,4.80
2023-08-31T14:35:54.099Z,3.75
2023-08-31T14:38:22.718Z,5.13
2023-08-31T14:40:50.015Z,3.88
2023-08-31T14:43:17.304Z,3.70
2023-08-31T14:45:44.561Z,3.97
2023-08-31T14:48:11.996Z,3.58
2023-08-31T14:50:43.672Z,3.33
2023-08-31T14:53:10.984Z,3.63
2023-08-31T14:55:38.663Z,3.55
2023-08-31T14:58:10.266Z,3.90
2023-08-31T15:00:37.618Z,3.58
2023-08-31T15:03:05.257Z,3.85
2023-08-31T15:05:32.530Z,3.13
2023-08-31T15:07:59.704Z,3.22
2023-08-31T15:10:28.594Z,3.55
2023-08-31T15:12:59.766Z,4.43
2023-08-31T15:15:27.438Z,3.95
2023-08-31T15:17:54.888Z,3.95
2023-08-31T15:20:22.360Z,4.22
2023-08-31T15:22:49.593Z,4.35
2023-08-31T15:25:16.903Z,4.03
2023-08-31T15:27:44.083Z,3.80
2023-08-31T15:30:11.904Z,4.32
2023-08-31T15:32:39.155Z,3.30
2023-08-31T15:35:06.686Z,3.30
2023-08-31T15:37:33.889Z,6.68
2023-08-31T15:40:01.030Z,3.65
2023-08-31T15:42:28.928Z,5.97
2023-08-31T15:44:56.886Z,3.58
2023-08-31T15:47:24.280Z,3.42
2023-08-31T15:49:52.985Z,3.40
2023-08-31T15:52:20.172Z,3.65
2023-08-31T15:54:47.358Z,3.55
2023-08-31T15:57:14.542Z,3.50
2023-08-31T15:59:42.044Z,3.60
2023-08-31T16:02:09.337Z,3.30
2023-08-31T16:04:36.608Z,4.00
2023-08-31T16:07:05.656Z,3.65
2023-08-31T16:09:33.339Z,6.63
2023-08-31T16:12:00.489Z,3.17
2023-08-31T16:14:27.636Z,4.15
2023-08-31T16:16:56.205Z,4.03
2023-08-31T16:19:26.342Z,3.47
2023-08-31T16:21:53.553Z,3.70
2023-08-31T16:24:20.679Z,3.40
2023-08-31T16:26:47.997Z,3.70
2023-08-31T16:29:17.654Z,4.35
2023-08-31T16:31:45.711Z,4.80
2023-08-31T16:34:12.906Z,3.35
2023-08-31T16:36:40.086Z,3.40
2023-08-31T16:39:08.166Z,3.00
2023-08-31T16:41:35.411Z,5.28
2023-08-31T16:44:02.565Z,2.88
2023-08-31T16:46:29.750Z,3.80
2023-08-31T16:48:57.018Z,3.45
2023-08-31T16:51:24.313Z,2.90
2023-08-31T16:53:52.005Z,3.25
2023-08-31T16:56:19.208Z,3.50
2023-08-31T16:58:46.395Z,3.35
2023-08-31T17:01:13.563Z,3.00
2023-08-31T17:03:40.736Z,3.35
2023-08-31T17:06:07.914Z,4.43
2023-08-31T17:08:35.092Z,5.32
2023-08-31T17:11:06.828Z,2.95
2023-08-31T17:13:34.642Z,4.18
2023-08-31T17:16:08.991Z,5.07
2023-08-31T17:18:36.220Z,3.90
2023-08-31T17:21:05.168Z,4.03
2023-08-31T17:23:33.089Z,3.35
2023-08-31T17:26:00.492Z,3.30
2023-08-31T17:28:27.912Z,3.97
2023-08-31T17:30:56.886Z,3.50
2023-08-31T17:33:25.563Z,3.42
2023-08-31T17:35:53.395Z,3.53
2023-08-31T17:38:22.641Z,3.55
2023-08-31T17:40:50.505Z,4.00
2023-08-31T17:43:18.958Z,5.95
2023-08-31T17:45:46.391Z,3.95
2023-08-31T17:48:14.323Z,4.72
2023-08-31T17:50:42.474Z,5.07
2023-08-31T17:53:10.128Z,5.10
2023-08-31T17:55:37.419Z,4.03
2023-08-31T17:58:05.085Z,4.50
2023-08-31T18:00:32.553Z,4.45
2023-08-31T18:03:00.826Z,4.05
2023-08-31T18:05:29.705Z,4.45
2023-08-31T18:07:57.328Z,3.65
2023-08-31T18:10:25.492Z,3.90
2023-08-31T18:12:53.616Z,4.60
2023-08-31T18:15:21.928Z,4.25
2023-08-31T18:17:49.303Z,5.35
2023-08-31T18:20:16.777Z,4.60
2023-08-31T18:22:44.185Z,6.80
2023-08-31T18:25:11.632Z,5.22
2023-08-31T18:27:43.197Z,5.07
2023-08-31T18:30:11.053Z,4.70
2023-08-31T18:32:38.438Z,5.32
2023-08-31T18:35:06.486Z,4.85
2023-08-31T18:37:34.424Z,3.95
2023-08-31T18:40:01.733Z,4.00
2023-08-31T18:42:29.120Z,4.07
2023-08-31T18:44:56.618Z,3.83
2023-08-31T18:47:24.028Z,3.90
2023-08-31T18:49:51.302Z,3.60
2023-08-31T18:52:18.661Z,4.22
2023-08-31T18:54:47.735Z,4.22
2023-08-31T18:57:14.869Z,4.22
2023-08-31T18:59:42.384Z,4.43
2023-08-31T19:02:09.595Z,5.53
2023-08-31T19:04:36.794Z,5.82
2023-08-31T19:07:04.400Z,3.75
2023-08-31T19:09:31.609Z,4.10
2023-08-31T19:11:58.852Z,3.75
2023-08-31T19:14:26.019Z,3.97
2023-08-31T19:16:53.462Z,3.80
2023-08-31T19:19:21.290Z,3.97
2023-08-31T19:21:48.563Z,4.22
2023-08-31T19:24:15.717Z,3.58
2023-08-31T19:26:43.032Z,3.70
2023-08-31T19:29:10.185Z,4.10
2023-08-31T19:31:37.446Z,3.42
2023-08-31T19:34:04.884Z,4.03
2023-08-31T19:36:32.022Z,4.35
2023-08-31T19:38:59.201Z,3.65
2023-08-31T19:41:26.468Z,3.67
2023-08-31T19:43:53.699Z,3.67
2023-08-31T19:46:21.741Z,3.90
2023-08-31T19:48:49.093Z,3.50
2023-08-31T19:51:16.334Z,5.32
2023-08-31T19:53:43.482Z,3.33
2023-08-31T19:56:10.731Z,6.05
2023-08-31T19:58:37.913Z,3.50
2023-08-31T20:01:05.319Z,3.67
2023-08-31T20:03:38.828Z,3.78
2023-08-31T20:06:06.591Z,4.55
2023-08-31T20:08:34.036Z,5.13
2023-08-31T20:11:01.292Z,4.13
2023-08-31T20:13:28.460Z,4.45
2023-08-31T20:16:06.108Z,4.18
2023-08-31T20:18:33.373Z,4.30
2023-08-31T20:21:00.516Z,3.92
2023-08-31T20:23:27.661Z,5.00
2023-08-31T20:25:54.861Z,3.95
2023-08-31T20:28:22.024Z,3.70
2023-08-31T20:30:49.838Z,3.72
2023-08-31T20:33:17.137Z,4.25
2023-08-31T20:35:44.374Z,4.82
2023-08-31T20:38:13.456Z,3.40
2023-08-31T20:40:41.386Z,3.45
2023-08-31T20:43:08.560Z,5.55
2023-08-31T20:45:36.838Z,4.35
2023-08-31T20:48:07.182Z,3.92
2023-08-31T20:50:35.789Z,4.22
2023-08-31T20:53:03.013Z,3.17
2023-08-31T20:55:30.394Z,3.30
2023-08-31T20:57:58.266Z,3.47
2023-08-31T21:00:25.452Z,3.92
2023-08-31T21:02:53.195Z,4.30
2023-08-31T21:05:20.465Z,3.90
2023-08-31T21:07:47.660Z,3.50
2023-08-31T21:10:14.812Z,3.33
2023-08-31T21:12:42.084Z,3.53
2023-08-31T21:15:09.758Z,5.32
2023-08-31T21:17:36.965Z,4.03
2023-08-31T21:20:05.643Z,3.60
2023-08-31T21:22:32.823Z,3.55
2023-08-31T21:24:59.931Z,3.60
2023-08-31T21:27:27.065Z,3.40
2023-08-31T21:29:54.289Z,3.97
2023-08-31T21:32:21.470Z,3.88
2023-08-31T21:34:48.710Z,3.50
2023-08-31T21:37:15.979Z,3.90
2023-08-31T21:39:43.169Z,3.95
2023-08-31T21:42:10.369Z,4.88
2023-08-31T21:44:37.591Z,5.28
2023-08-31T21:47:05.276Z,4.32
2023-08-31T21:49:32.502Z,3.83
2023-08-31T21:51:59.642Z,3.95
2023-08-31T21:54:26.870Z,3.35
2023-08-31T21:56:54.110Z,3.65
2023-08-31T21:59:21.245Z,3.72
2023-08-31T22:01:48.473Z,3.97
2023-08-31T22:04:17.897Z,3.65
2023-08-31T22:06:45.295Z,3.63
2023-08-31T22:09:12.664Z,4.00
2023-08-31T22:11:40.086Z,4.22
2023-08-31T22:14:07.410Z,4.03
2023-08-31T22:16:34.693Z,5.75
2023-08-31T22:19:02.020Z,4.60
2023-08-31T22:21:29.520Z,4.50
2023-08-31T22:23:56.803Z,4.20
2023-08-31T22:26:24.110Z,4.32
2023-08-31T22:28:51.446Z,4.65
2023-08-31T22:31:18.712Z,4.40
2023-08-31T22:33:45.892Z,3.70
2023-08-31T22:36:13.115Z,4.22
2023-08-31T22:38:40.266Z,3.17
2023-08-31T22:41:08.028Z,3.38
2023-08-31T22:43:41.969Z,4.25
2023-08-31T22:46:09.877Z,3.13
2023-08-31T22:48:37.229Z,3.70
2023-08-31T22:51:04.916Z,3.40
2023-08-31T22:53:33.634Z,3.70
2023-08-31T22:56:01.170Z,3.90
2023-08-31T22:58:28.909Z,3.60
2023-08-31T23:00:56.186Z,3.20
2023-08-31T23:03:23.507Z,3.65
2023-08-31T23:05:50.712Z,5.65
2023-08-31T23:08:17.877Z,4.10
2023-08-31T23:10:45.049Z,3.92
2023-08-31T23:13:12.205Z,6.25
2023-08-31T23:15:39.583Z,3.38
2023-08-31T23:18:06.888Z,3.92
2023-08-31T23:20:34.176Z,3.28
2023-08-31T23:23:01.348Z,3.85
2023-08-31T23:25:28.511Z,4.00
2023-08-31T23:27:55.675Z,3.40
2023-08-31T23:30:22.958Z,3.75
2023-08-31T23:32:50.254Z,3.60
2023-08-31T23:35:18.584Z,4.25
2023-08-31T23:37:45.881Z,5.47
2023-08-31T23:40:13.087Z,3.72
2023-08-31T23:42:42.784Z,3.95
2023-08-31T23:45:11.201Z,3.88
2023-08-31T23:47:38.441Z,4.50
2023-08-31T23:50:06.546Z,4.10
2023-08-31T23:52:33.769Z,4.00
2023-08-31T23:55:00.959Z,3.95
2023-08-31T23:57:28.166Z,3.40
2023-08-31T23:59:55.293Z,3.40
